sensor_id;sensor_type;location;lat;lon;timestamp;pressure;altitude;pressure_sealevel;temperature;humidity
50867;BME280;36839;51.946;21.002;2023-05-01T00:01:18;100706.32;;;2.84;100.00
50867;BME280;36839;51.946;21.002;2023-05-01T00:03:45;100708.13;;;2.90;100.00
50867;BME280;36839;51.946;21.002;2023-05-01T00:06:12;100704.23;;;2.94;100.00
50867;BME280;36839;51.946;21.002;2023-05-01T00:08:40;100703.48;;;2.98;100.00
50867;BME280;36839;51.946;21.002;2023-05-01T00:11:11;100703.27;;;3.04;100.00
50867;BME280;36839;51.946;21.002;2023-05-01T00:13:42;100705.59;;;3.09;100.00
50867;BME280;36839;51.946;21.002;2023-05-01T00:16:17;100704.04;;;3.13;100.00
50867;BME280;36839;51.946;21.002;2023-05-01T00:18:44;100699.89;;;3.14;100.00
50867;BME280;36839;51.946;21.002;2023-05-01T00:21:11;100699.17;;;3.13;100.00
50867;BME280;36839;51.946;21.002;2023-05-01T00:23:38;100705.41;;;3.10;100.00
50867;BME280;36839;51.946;21.002;2023-05-01T00:26:20;100705.89;;;3.04;100.00
50867;BME280;36839;51.946;21.002;2023-05-01T00:28:47;100713.05;;;3.01;100.00
50867;BME280;36839;51.946;21.002;2023-05-01T00:31:16;100717.38;;;2.99;100.00
50867;BME280;36839;51.946;21.002;2023-05-01T00:33:44;100720.06;;;2.98;100.00
50867;BME280;36839;51.946;21.002;2023-05-01T00:36:13;100717.52;;;2.98;100.00
50867;BME280;36839;51.946;21.002;2023-05-01T00:38:55;100713.72;;;2.99;100.00
50867;BME280;36839;51.946;21.002;2023-05-01T00:41:23;100720.86;;;2.99;100.00
50867;BME280;36839;51.946;21.002;2023-05-01T00:43:50;100724.14;;;2.96;100.00
50867;BME280;36839;51.946;21.002;2023-05-01T00:46:17;100725.00;;;2.93;100.00
50867;BME280;36839;51.946;21.002;2023-05-01T00:48:46;100722.23;;;2.90;100.00
50867;BME280;36839;51.946;21.002;2023-05-01T00:51:14;100721.81;;;2.86;100.00
50867;BME280;36839;51.946;21.002;2023-05-01T00:53:45;100719.91;;;2.79;100.00
50867;BME280;36839;51.946;21.002;2023-05-01T00:56:13;100719.27;;;2.73;100.00
50867;BME280;36839;51.946;21.002;2023-05-01T00:58:41;100721.11;;;2.66;100.00
50867;BME280;36839;51.946;21.002;2023-05-01T01:01:10;100721.25;;;2.60;100.00
50867;BME280;36839;51.946;21.002;2023-05-01T01:03:38;100724.13;;;2.53;100.00
50867;BME280;36839;51.946;21.002;2023-05-01T01:14:26;100734.64;;;2.23;100.00
50867;BME280;36839;51.946;21.002;2023-05-01T01:22:30;100731.87;;;2.14;100.00
50867;BME280;36839;51.946;21.002;2023-05-01T01:25:26;100732.87;;;2.10;100.00
50867;BME280;36839;51.946;21.002;2023-05-01T01:37:30;100729.84;;;1.83;100.00
50867;BME280;36839;51.946;21.002;2023-05-01T01:40:05;100735.58;;;1.81;100.00
50867;BME280;36839;51.946;21.002;2023-05-01T01:42:44;100736.16;;;1.77;100.00
50867;BME280;36839;51.946;21.002;2023-05-01T01:45:27;100730.38;;;1.70;100.00
50867;BME280;36839;51.946;21.002;2023-05-01T01:47:59;100736.27;;;1.68;100.00
50867;BME280;36839;51.946;21.002;2023-05-01T01:50:36;100742.63;;;1.65;100.00
50867;BME280;36839;51.946;21.002;2023-05-01T01:53:10;100741.23;;;1.58;100.00
50867;BME280;36839;51.946;21.002;2023-05-01T01:55:39;100744.94;;;1.55;100.00
50867;BME280;36839;51.946;21.002;2023-05-01T01:58:14;100742.89;;;1.50;100.00
50867;BME280;36839;51.946;21.002;2023-05-01T02:00:44;100740.72;;;1.44;100.00
50867;BME280;36839;51.946;21.002;2023-05-01T02:03:12;100739.06;;;1.36;100.00
50867;BME280;36839;51.946;21.002;2023-05-01T02:05:53;100738.24;;;1.28;100.00
50867;BME280;36839;51.946;21.002;2023-05-01T02:08:22;100739.98;;;1.23;100.00
50867;BME280;36839;51.946;21.002;2023-05-01T02:10:52;100737.84;;;1.19;100.00
50867;BME280;36839;51.946;21.002;2023-05-01T02:13:29;100739.71;;;1.12;100.00
50867;BME280;36839;51.946;21.002;2023-05-01T02:16:09;100737.17;;;1.10;100.00
50867;BME280;36839;51.946;21.002;2023-05-01T02:18:39;100741.39;;;1.08;100.00
50867;BME280;36839;51.946;21.002;2023-05-01T02:21:09;100740.70;;;1.06;100.00
50867;BME280;36839;51.946;21.002;2023-05-01T02:23:41;100744.73;;;1.03;100.00
50867;BME280;36839;51.946;21.002;2023-05-01T02:26:12;100745.18;;;0.97;100.00
50867;BME280;36839;51.946;21.002;2023-05-01T02:28:43;100745.23;;;0.91;100.00
50867;BME280;36839;51.946;21.002;2023-05-01T02:31:13;100742.98;;;0.83;100.00
50867;BME280;36839;51.946;21.002;2023-05-01T02:33:41;100744.83;;;0.78;100.00
50867;BME280;36839;51.946;21.002;2023-05-01T02:36:08;100745.91;;;0.77;100.00
50867;BME280;36839;51.946;21.002;2023-05-01T02:38:38;100743.71;;;0.76;100.00
50867;BME280;36839;51.946;21.002;2023-05-01T02:41:08;100745.56;;;0.74;100.00
50867;BME280;36839;51.946;21.002;2023-05-01T02:43:38;100743.41;;;0.71;100.00
50867;BME280;36839;51.946;21.002;2023-05-01T02:46:06;100744.61;;;0.66;100.00
50867;BME280;36839;51.946;21.002;2023-05-01T02:48:39;100744.06;;;0.62;100.00
50867;BME280;36839;51.946;21.002;2023-05-01T02:51:09;100743.18;;;0.57;100.00
50867;BME280;36839;51.946;21.002;2023-05-01T02:53:39;100744.27;;;0.54;100.00
50867;BME280;36839;51.946;21.002;2023-05-01T02:56:10;100742.90;;;0.50;100.00
50867;BME280;36839;51.946;21.002;2023-05-01T02:58:39;100743.78;;;0.45;100.00
50867;BME280;36839;51.946;21.002;2023-05-01T03:01:07;100745.48;;;0.43;100.00
50867;BME280;36839;51.946;21.002;2023-05-01T03:03:34;100749.77;;;0.41;100.00
50867;BME280;36839;51.946;21.002;2023-05-01T03:06:03;100750.94;;;0.40;100.00
50867;BME280;36839;51.946;21.002;2023-05-01T03:08:32;100743.41;;;0.39;100.00
50867;BME280;36839;51.946;21.002;2023-05-01T03:11:03;100744.54;;;0.37;100.00
50867;BME280;36839;51.946;21.002;2023-05-01T03:13:34;100742.64;;;0.37;100.00
50867;BME280;36839;51.946;21.002;2023-05-01T03:16:01;100743.88;;;0.34;100.00
50867;BME280;36839;51.946;21.002;2023-05-01T03:18:32;100748.41;;;0.31;100.00
50867;BME280;36839;51.946;21.002;2023-05-01T03:21:13;100749.15;;;0.31;100.00
50867;BME280;36839;51.946;21.002;2023-05-01T03:23:40;100744.10;;;0.31;100.00
50867;BME280;36839;51.946;21.002;2023-05-01T03:26:18;100741.17;;;0.31;100.00
50867;BME280;36839;51.946;21.002;2023-05-01T03:28:47;100740.19;;;0.33;100.00
50867;BME280;36839;51.946;21.002;2023-05-01T03:31:19;100745.62;;;0.33;100.00
50867;BME280;36839;51.946;21.002;2023-05-01T03:33:49;100740.16;;;0.35;100.00
50867;BME280;36839;51.946;21.002;2023-05-01T03:36:18;100738.94;;;0.37;100.00
50867;BME280;36839;51.946;21.002;2023-05-01T03:38:48;100735.95;;;0.42;100.00
50867;BME280;36839;51.946;21.002;2023-05-01T03:41:21;100736.60;;;0.49;100.00
50867;BME280;36839;51.946;21.002;2023-05-01T03:44:00;100741.65;;;0.56;100.00
50867;BME280;36839;51.946;21.002;2023-05-01T03:46:28;100739.59;;;0.61;100.00
50867;BME280;36839;51.946;21.002;2023-05-01T03:48:56;100738.35;;;0.62;100.00
50867;BME280;36839;51.946;21.002;2023-05-01T03:51:26;100731.89;;;0.65;100.00
50867;BME280;36839;51.946;21.002;2023-05-01T03:53:54;100733.36;;;0.70;100.00
50867;BME280;36839;51.946;21.002;2023-05-01T03:56:25;100738.21;;;0.78;100.00
50867;BME280;36839;51.946;21.002;2023-05-01T03:58:53;100738.54;;;0.85;100.00
50867;BME280;36839;51.946;21.002;2023-05-01T04:01:28;100739.36;;;0.93;100.00
50867;BME280;36839;51.946;21.002;2023-05-01T04:03:58;100741.64;;;1.00;100.00
50867;BME280;36839;51.946;21.002;2023-05-01T04:06:39;100737.86;;;1.07;100.00
50867;BME280;36839;51.946;21.002;2023-05-01T04:09:06;100735.66;;;1.14;100.00
50867;BME280;36839;51.946;21.002;2023-05-01T04:11:34;100738.40;;;1.22;100.00
50867;BME280;36839;51.946;21.002;2023-05-01T04:14:03;100740.44;;;1.31;100.00
50867;BME280;36839;51.946;21.002;2023-05-01T04:16:32;100740.44;;;1.41;100.00
50867;BME280;36839;51.946;21.002;2023-05-01T04:19:01;100740.52;;;1.52;100.00
50867;BME280;36839;51.946;21.002;2023-05-01T04:21:28;100740.41;;;1.60;100.00
50867;BME280;36839;51.946;21.002;2023-05-01T04:23:56;100733.60;;;1.70;100.00
50867;BME280;36839;51.946;21.002;2023-05-01T04:26:23;100738.06;;;1.80;100.00
50867;BME280;36839;51.946;21.002;2023-05-01T04:28:51;100740.67;;;1.89;100.00
50867;BME280;36839;51.946;21.002;2023-05-01T04:31:20;100743.46;;;2.00;100.00
50867;BME280;36839;51.946;21.002;2023-05-01T04:33:50;100739.89;;;2.08;100.00
50867;BME280;36839;51.946;21.002;2023-05-01T04:36:18;100743.25;;;2.19;100.00
50867;BME280;36839;51.946;21.002;2023-05-01T04:38:46;100746.36;;;2.30;100.00
50867;BME280;36839;51.946;21.002;2023-05-01T04:41:15;100747.09;;;2.42;100.00
50867;BME280;36839;51.946;21.002;2023-05-01T04:43:45;100743.05;;;2.54;100.00
50867;BME280;36839;51.946;21.002;2023-05-01T04:46:20;100744.67;;;2.64;100.00
50867;BME280;36839;51.946;21.002;2023-05-01T04:48:49;100737.11;;;2.77;100.00
50867;BME280;36839;51.946;21.002;2023-05-01T04:51:16;100738.52;;;2.91;100.00
50867;BME280;36839;51.946;21.002;2023-05-01T04:53:43;100736.85;;;3.03;100.00
50867;BME280;36839;51.946;21.002;2023-05-01T04:56:16;100741.08;;;3.16;100.00
50867;BME280;36839;51.946;21.002;2023-05-01T04:58:44;100736.54;;;3.28;100.00
50867;BME280;36839;51.946;21.002;2023-05-01T05:01:15;100733.64;;;3.39;100.00
50867;BME280;36839;51.946;21.002;2023-05-01T05:03:42;100740.14;;;3.55;100.00
50867;BME280;36839;51.946;21.002;2023-05-01T05:06:09;100741.39;;;3.68;100.00
50867;BME280;36839;51.946;21.002;2023-05-01T05:08:40;100736.77;;;3.83;100.00
50867;BME280;36839;51.946;21.002;2023-05-01T05:11:09;100736.77;;;3.97;100.00
50867;BME280;36839;51.946;21.002;2023-05-01T05:13:36;100741.35;;;4.12;100.00
50867;BME280;36839;51.946;21.002;2023-05-01T05:16:04;100737.89;;;4.27;100.00
50867;BME280;36839;51.946;21.002;2023-05-01T05:18:38;100737.48;;;4.43;100.00
50867;BME280;36839;51.946;21.002;2023-05-01T05:21:07;100736.30;;;4.60;100.00
50867;BME280;36839;51.946;21.002;2023-05-01T05:23:37;100737.45;;;4.77;100.00
50867;BME280;36839;51.946;21.002;2023-05-01T05:26:09;100737.88;;;4.94;100.00
50867;BME280;36839;51.946;21.002;2023-05-01T05:28:41;100734.53;;;5.13;100.00
50867;BME280;36839;51.946;21.002;2023-05-01T05:31:13;100732.17;;;5.31;100.00
50867;BME280;36839;51.946;21.002;2023-05-01T05:33:45;100728.49;;;5.51;100.00
50867;BME280;36839;51.946;21.002;2023-05-01T05:36:13;100728.37;;;5.69;100.00
50867;BME280;36839;51.946;21.002;2023-05-01T05:38:44;100733.65;;;5.85;100.00
50867;BME280;36839;51.946;21.002;2023-05-01T05:41:13;100729.98;;;5.99;100.00
50867;BME280;36839;51.946;21.002;2023-05-01T05:43:43;100729.66;;;6.14;100.00
50867;BME280;36839;51.946;21.002;2023-05-01T05:46:11;100733.66;;;6.27;100.00
50867;BME280;36839;51.946;21.002;2023-05-01T05:48:42;100729.59;;;6.40;99.09
50867;BME280;36839;51.946;21.002;2023-05-01T05:51:10;100735.20;;;6.53;98.13
50867;BME280;36839;51.946;21.002;2023-05-01T05:53:37;100735.16;;;6.68;97.28
50867;BME280;36839;51.946;21.002;2023-05-01T05:56:10;100729.72;;;6.77;91.55
50867;BME280;36839;51.946;21.002;2023-05-01T05:58:37;100732.41;;;6.90;89.60
50867;BME280;36839;51.946;21.002;2023-05-01T06:01:05;100731.92;;;7.02;88.41
50867;BME280;36839;51.946;21.002;2023-05-01T06:03:35;100735.56;;;7.15;86.74
50867;BME280;36839;51.946;21.002;2023-05-01T06:06:03;100733.70;;;7.26;84.70
50867;BME280;36839;51.946;21.002;2023-05-01T06:08:32;100729.85;;;7.37;82.48
50867;BME280;36839;51.946;21.002;2023-05-01T06:11:05;100728.67;;;7.49;82.28
50867;BME280;36839;51.946;21.002;2023-05-01T06:13:34;100730.52;;;7.60;79.47
50867;BME280;36839;51.946;21.002;2023-05-01T06:16:02;100734.16;;;7.69;78.32
50867;BME280;36839;51.946;21.002;2023-05-01T06:18:34;100736.14;;;7.79;77.17
50867;BME280;36839;51.946;21.002;2023-05-01T06:21:05;100736.38;;;7.91;76.82
50867;BME280;36839;51.946;21.002;2023-05-01T06:23:38;100735.31;;;8.05;76.30
50867;BME280;36839;51.946;21.002;2023-05-01T06:26:05;100732.13;;;8.18;73.47
50867;BME280;36839;51.946;21.002;2023-05-01T06:28:35;100735.01;;;8.29;72.43
50867;BME280;36839;51.946;21.002;2023-05-01T06:31:05;100739.75;;;8.39;71.02
50867;BME280;36839;51.946;21.002;2023-05-01T06:33:32;100739.65;;;8.50;70.01
50867;BME280;36839;51.946;21.002;2023-05-01T06:36:00;100735.54;;;8.59;69.17
50867;BME280;36839;51.946;21.002;2023-05-01T06:38:28;100732.02;;;8.70;68.11
50867;BME280;36839;51.946;21.002;2023-05-01T06:40:56;100733.45;;;8.79;66.62
50867;BME280;36839;51.946;21.002;2023-05-01T06:43:23;100736.15;;;8.84;65.63
50867;BME280;36839;51.946;21.002;2023-05-01T06:45:56;100731.11;;;8.97;67.22
50867;BME280;36839;51.946;21.002;2023-05-01T06:48:25;100732.27;;;9.10;66.68
50867;BME280;36839;51.946;21.002;2023-05-01T06:50:56;100730.89;;;9.19;66.13
50867;BME280;36839;51.946;21.002;2023-05-01T06:53:26;100728.34;;;9.28;65.42
50867;BME280;36839;51.946;21.002;2023-05-01T06:55:53;100733.20;;;9.38;65.61
50867;BME280;36839;51.946;21.002;2023-05-01T06:58:24;100726.98;;;9.48;64.92
50867;BME280;36839;51.946;21.002;2023-05-01T07:00:52;100728.20;;;9.55;64.02
50867;BME280;36839;51.946;21.002;2023-05-01T07:03:20;100726.73;;;9.60;62.15
50867;BME280;36839;51.946;21.002;2023-05-01T07:05:48;100725.68;;;9.64;62.20
50867;BME280;36839;51.946;21.002;2023-05-01T07:08:23;100731.08;;;9.70;61.89
50867;BME280;36839;51.946;21.002;2023-05-01T07:10:56;100735.46;;;9.76;62.18
50867;BME280;36839;51.946;21.002;2023-05-01T07:13:25;100728.59;;;9.84;62.71
50867;BME280;36839;51.946;21.002;2023-05-01T07:15:53;100729.49;;;9.93;61.55
50867;BME280;36839;51.946;21.002;2023-05-01T07:18:24;100729.13;;;10.03;61.13
50867;BME280;36839;51.946;21.002;2023-05-01T07:20:52;100729.88;;;10.13;60.33
50867;BME280;36839;51.946;21.002;2023-05-01T07:23:20;100725.48;;;10.18;59.61
50867;BME280;36839;51.946;21.002;2023-05-01T07:25:51;100723.23;;;10.20;58.51
50867;BME280;36839;51.946;21.002;2023-05-01T07:28:21;100724.64;;;10.23;58.50
50867;BME280;36839;51.946;21.002;2023-05-01T07:30:49;100724.98;;;10.20;55.97
50867;BME280;36839;51.946;21.002;2023-05-01T07:33:20;100719.71;;;10.20;57.28
50867;BME280;36839;51.946;21.002;2023-05-01T07:35:47;100718.66;;;10.25;57.86
50867;BME280;36839;51.946;21.002;2023-05-01T07:38:16;100721.71;;;10.36;58.32
50867;BME280;36839;51.946;21.002;2023-05-01T07:40:56;100725.91;;;10.50;57.82
50867;BME280;36839;51.946;21.002;2023-05-01T07:43:24;100726.77;;;10.56;58.12
50867;BME280;36839;51.946;21.002;2023-05-01T07:45:58;100726.01;;;10.66;58.09
50867;BME280;36839;51.946;21.002;2023-05-01T07:48:31;100726.05;;;10.75;58.09
50867;BME280;36839;51.946;21.002;2023-05-01T07:51:02;100724.55;;;10.84;58.20
50867;BME280;36839;51.946;21.002;2023-05-01T07:53:39;100722.25;;;11.02;59.96
50867;BME280;36839;51.946;21.002;2023-05-01T07:56:12;100716.55;;;11.19;58.67
50867;BME280;36839;51.946;21.002;2023-05-01T07:58:41;100715.77;;;11.26;56.70
50867;BME280;36839;51.946;21.002;2023-05-01T08:01:10;100713.50;;;11.24;55.21
50867;BME280;36839;51.946;21.002;2023-05-01T08:03:38;100711.55;;;11.28;56.21
50867;BME280;36839;51.946;21.002;2023-05-01T08:06:09;100707.88;;;11.32;55.92
50867;BME280;36839;51.946;21.002;2023-05-01T08:08:39;100712.23;;;11.44;57.48
50867;BME280;36839;51.946;21.002;2023-05-01T08:11:10;100713.05;;;11.55;57.35
50867;BME280;36839;51.946;21.002;2023-05-01T08:13:38;100715.87;;;11.70;56.80
50867;BME280;36839;51.946;21.002;2023-05-01T08:16:07;100712.16;;;11.76;56.63
50867;BME280;36839;51.946;21.002;2023-05-01T08:18:35;100714.20;;;11.83;55.25
50867;BME280;36839;51.946;21.002;2023-05-01T08:21:02;100710.65;;;11.87;55.62
50867;BME280;36839;51.946;21.002;2023-05-01T08:23:31;100709.73;;;12.00;56.65
50867;BME280;36839;51.946;21.002;2023-05-01T08:25:59;100709.58;;;12.11;55.46
50867;BME280;36839;51.946;21.002;2023-05-01T08:28:33;100711.02;;;12.23;56.74
50867;BME280;36839;51.946;21.002;2023-05-01T08:31:02;100713.64;;;12.28;53.51
50867;BME280;36839;51.946;21.002;2023-05-01T08:33:29;100712.66;;;12.30;54.02
50867;BME280;36839;51.946;21.002;2023-05-01T08:35:57;100714.82;;;12.31;52.20
50867;BME280;36839;51.946;21.002;2023-05-01T08:38:26;100716.77;;;12.31;51.67
50867;BME280;36839;51.946;21.002;2023-05-01T08:40:55;100716.60;;;12.44;53.19
50867;BME280;36839;51.946;21.002;2023-05-01T08:43:25;100714.67;;;12.45;51.68
50867;BME280;36839;51.946;21.002;2023-05-01T08:45:57;100714.41;;;12.51;51.99
50867;BME280;36839;51.946;21.002;2023-05-01T08:48:27;100712.75;;;12.52;50.95
50867;BME280;36839;51.946;21.002;2023-05-01T08:50:56;100712.33;;;12.57;51.63
50867;BME280;36839;51.946;21.002;2023-05-01T08:53:27;100713.07;;;12.64;51.15
50867;BME280;36839;51.946;21.002;2023-05-01T08:55:58;100713.23;;;12.75;51.64
50867;BME280;36839;51.946;21.002;2023-05-01T08:58:29;100713.09;;;12.91;52.19
50867;BME280;36839;51.946;21.002;2023-05-01T09:00:59;100715.63;;;13.07;52.01
50867;BME280;36839;51.946;21.002;2023-05-01T09:03:31;100717.63;;;13.12;49.89
50867;BME280;36839;51.946;21.002;2023-05-01T09:05:59;100715.63;;;13.13;48.76
50867;BME280;36839;51.946;21.002;2023-05-01T09:08:30;100711.46;;;13.08;47.29
50867;BME280;36839;51.946;21.002;2023-05-01T09:11:00;100712.12;;;13.03;46.88
50867;BME280;36839;51.946;21.002;2023-05-01T09:13:31;100710.84;;;13.02;48.01
50867;BME280;36839;51.946;21.002;2023-05-01T09:16:06;100710.90;;;13.04;48.09
50867;BME280;36839;51.946;21.002;2023-05-01T09:18:34;100710.52;;;13.13;48.70
50867;BME280;36839;51.946;21.002;2023-05-01T09:21:04;100704.64;;;13.26;49.65
50867;BME280;36839;51.946;21.002;2023-05-01T09:23:31;100706.30;;;13.41;48.00
50867;BME280;36839;51.946;21.002;2023-05-01T09:26:04;100704.02;;;13.56;47.67
50867;BME280;36839;51.946;21.002;2023-05-01T09:28:42;100703.08;;;13.73;48.61
50867;BME280;36839;51.946;21.002;2023-05-01T09:31:28;100701.21;;;13.86;46.94
50867;BME280;36839;51.946;21.002;2023-05-01T09:33:58;100697.96;;;13.99;46.42
50867;BME280;36839;51.946;21.002;2023-05-01T09:36:30;100697.02;;;14.05;46.19
50867;BME280;36839;51.946;21.002;2023-05-01T09:38:58;100692.18;;;14.06;46.68
50867;BME280;36839;51.946;21.002;2023-05-01T09:41:30;100687.30;;;14.19;46.87
50867;BME280;36839;51.946;21.002;2023-05-01T09:43:59;100684.57;;;14.38;46.94
50867;BME280;36839;51.946;21.002;2023-05-01T09:46:41;100680.88;;;14.42;45.83
50867;BME280;36839;51.946;21.002;2023-05-01T09:49:11;100677.48;;;14.46;45.77
50867;BME280;36839;51.946;21.002;2023-05-01T09:51:40;100671.98;;;14.50;45.50
50867;BME280;36839;51.946;21.002;2023-05-01T09:54:18;100673.25;;;14.63;45.18
50867;BME280;36839;51.946;21.002;2023-05-01T09:56:49;100673.21;;;14.67;43.63
50867;BME280;36839;51.946;21.002;2023-05-01T09:59:23;100666.95;;;14.66;41.03
50867;BME280;36839;51.946;21.002;2023-05-01T10:01:56;100668.80;;;14.63;41.95
50867;BME280;36839;51.946;21.002;2023-05-01T10:04:34;100663.48;;;14.69;42.64
50867;BME280;36839;51.946;21.002;2023-05-01T10:07:15;100662.55;;;14.84;41.41
50867;BME280;36839;51.946;21.002;2023-05-01T10:09:43;100659.75;;;14.86;39.13
50867;BME280;36839;51.946;21.002;2023-05-01T10:12:22;100658.30;;;14.88;41.10
50867;BME280;36839;51.946;21.002;2023-05-01T10:14:52;100656.09;;;14.94;40.90
50867;BME280;36839;51.946;21.002;2023-05-01T10:17:22;100647.08;;;15.02;41.23
50867;BME280;36839;51.946;21.002;2023-05-01T10:19:51;100643.08;;;15.14;39.97
50867;BME280;36839;51.946;21.002;2023-05-01T10:22:19;100644.96;;;15.22;38.52
50867;BME280;36839;51.946;21.002;2023-05-01T10:24:49;100641.14;;;15.27;37.52
50867;BME280;36839;51.946;21.002;2023-05-01T10:27:17;100641.34;;;15.43;38.93
50867;BME280;36839;51.946;21.002;2023-05-01T10:29:51;100639.86;;;15.51;38.54
50867;BME280;36839;51.946;21.002;2023-05-01T10:32:22;100636.86;;;15.57;37.93
50867;BME280;36839;51.946;21.002;2023-05-01T10:34:55;100635.08;;;15.66;36.41
50867;BME280;36839;51.946;21.002;2023-05-01T10:37:46;100632.51;;;15.77;39.71
50867;BME280;36839;51.946;21.002;2023-05-01T10:49:02;100621.01;;;16.26;39.00
50867;BME280;36839;51.946;21.002;2023-05-01T10:51:32;100622.14;;;16.37;39.08
50867;BME280;36839;51.946;21.002;2023-05-01T10:54:32;100613.55;;;16.38;37.28
50867;BME280;36839;51.946;21.002;2023-05-01T10:57:02;100615.92;;;16.59;40.09
50867;BME280;36839;51.946;21.002;2023-05-01T11:02:51;100613.45;;;16.66;34.36
50867;BME280;36839;51.946;21.002;2023-05-01T11:06:13;100607.55;;;16.67;35.15
50867;BME280;36839;51.946;21.002;2023-05-01T11:08:37;100606.45;;;16.91;36.19
50867;BME280;36839;51.946;21.002;2023-05-01T11:14:07;100602.60;;;17.33;35.60
50867;BME280;36839;51.946;21.002;2023-05-01T11:19:45;100600.05;;;17.29;33.49
50867;BME280;36839;51.946;21.002;2023-05-01T11:22:12;100599.59;;;17.30;34.16
50867;BME280;36839;51.946;21.002;2023-05-01T11:24:38;100593.20;;;17.28;31.74
50867;BME280;36839;51.946;21.002;2023-05-01T11:27:20;100590.45;;;17.18;31.41
50867;BME280;36839;51.946;21.002;2023-05-01T11:30:36;100589.98;;;17.07;33.05
50867;BME280;36839;51.946;21.002;2023-05-01T11:33:04;100588.33;;;17.23;35.51
50867;BME280;36839;51.946;21.002;2023-05-01T11:35:32;100586.15;;;17.38;36.13
50867;BME280;36839;51.946;21.002;2023-05-01T11:37:59;100584.48;;;17.53;34.36
50867;BME280;36839;51.946;21.002;2023-05-01T11:40:34;100581.34;;;17.48;31.50
50867;BME280;36839;51.946;21.002;2023-05-01T11:45:32;100573.33;;;17.43;30.59
50867;BME280;36839;51.946;21.002;2023-05-01T11:48:13;100577.65;;;17.51;32.96
50867;BME280;36839;51.946;21.002;2023-05-01T11:50:44;100574.39;;;17.60;34.00
50867;BME280;36839;51.946;21.002;2023-05-01T11:53:13;100571.91;;;17.59;33.43
50867;BME280;36839;51.946;21.002;2023-05-01T11:55:45;100565.80;;;17.66;35.12
50867;BME280;36839;51.946;21.002;2023-05-01T11:58:33;100563.77;;;17.85;35.30
50867;BME280;36839;51.946;21.002;2023-05-01T12:01:03;100556.90;;;17.95;35.08
50867;BME280;36839;51.946;21.002;2023-05-01T12:03:40;100554.52;;;18.05;34.47
50867;BME280;36839;51.946;21.002;2023-05-01T12:06:13;100552.23;;;18.15;34.47
50867;BME280;36839;51.946;21.002;2023-05-01T12:08:47;100547.58;;;18.06;32.75
50867;BME280;36839;51.946;21.002;2023-05-01T12:11:16;100542.70;;;18.04;32.96
50867;BME280;36839;51.946;21.002;2023-05-01T12:13:48;100540.19;;;18.02;33.29
50867;BME280;36839;51.946;21.002;2023-05-01T12:16:24;100542.11;;;18.05;33.45
50867;BME280;36839;51.946;21.002;2023-05-01T12:18:52;100538.16;;;18.22;34.47
50867;BME280;36839;51.946;21.002;2023-05-01T12:21:20;100536.02;;;18.36;34.08
50867;BME280;36839;51.946;21.002;2023-05-01T12:23:50;100533.35;;;18.47;33.63
50867;BME280;36839;51.946;21.002;2023-05-01T12:26:18;100530.73;;;18.53;31.95
50867;BME280;36839;51.946;21.002;2023-05-01T12:29:03;100521.72;;;18.63;32.78
50867;BME280;36839;51.946;21.002;2023-05-01T12:31:32;100522.33;;;18.61;30.75
50867;BME280;36839;51.946;21.002;2023-05-01T12:34:07;100519.30;;;18.74;31.09
50867;BME280;36839;51.946;21.002;2023-05-01T12:36:36;100520.11;;;18.93;31.30
50867;BME280;36839;51.946;21.002;2023-05-01T12:39:09;100516.01;;;19.04;30.68
50867;BME280;36839;51.946;21.002;2023-05-01T12:41:48;100519.21;;;19.10;28.92
50867;BME280;36839;51.946;21.002;2023-05-01T12:44:26;100510.47;;;19.16;29.17
50867;BME280;36839;51.946;21.002;2023-05-01T12:47:04;100509.19;;;19.22;28.68
50867;BME280;36839;51.946;21.002;2023-05-01T12:49:36;100510.23;;;19.36;28.54
50867;BME280;36839;51.946;21.002;2023-05-01T12:52:07;100505.50;;;19.53;29.17
50867;BME280;36839;51.946;21.002;2023-05-01T12:54:38;100505.63;;;19.59;28.86
50867;BME280;36839;51.946;21.002;2023-05-01T12:57:11;100500.45;;;19.66;28.06
50867;BME280;36839;51.946;21.002;2023-05-01T12:59:44;100498.74;;;19.66;27.80
50867;BME280;36839;51.946;21.002;2023-05-01T13:02:16;100488.36;;;19.78;27.65
50867;BME280;36839;51.946;21.002;2023-05-01T13:04:43;100484.64;;;19.81;28.45
50867;BME280;36839;51.946;21.002;2023-05-01T13:07:23;100476.60;;;19.84;27.45
50867;BME280;36839;51.946;21.002;2023-05-01T13:09:55;100477.85;;;19.83;28.60
50867;BME280;36839;51.946;21.002;2023-05-01T13:12:27;100473.73;;;19.97;30.24
50867;BME280;36839;51.946;21.002;2023-05-01T13:14:57;100473.89;;;20.19;30.80
50867;BME280;36839;51.946;21.002;2023-05-01T13:17:28;100470.86;;;20.35;29.05
50867;BME280;36839;51.946;21.002;2023-05-01T13:20:01;100472.67;;;20.58;28.89
50867;BME280;36839;51.946;21.002;2023-05-01T13:22:37;100468.91;;;20.54;27.06
50867;BME280;36839;51.946;21.002;2023-05-01T13:25:17;100463.63;;;20.53;26.98
50867;BME280;36839;51.946;21.002;2023-05-01T13:27:51;100458.14;;;20.56;28.31
50867;BME280;36839;51.946;21.002;2023-05-01T13:30:19;100457.45;;;20.79;28.30
50867;BME280;36839;51.946;21.002;2023-05-01T13:32:49;100452.30;;;20.79;28.34
50867;BME280;36839;51.946;21.002;2023-05-01T13:35:23;100452.54;;;20.94;27.44
50867;BME280;36839;51.946;21.002;2023-05-01T13:37:52;100452.23;;;21.08;27.84
50867;BME280;36839;51.946;21.002;2023-05-01T13:40:22;100448.29;;;21.03;26.81
50867;BME280;36839;51.946;21.002;2023-05-01T13:42:50;100450.73;;;21.11;28.32
50867;BME280;36839;51.946;21.002;2023-05-01T13:45:19;100448.72;;;21.07;26.51